createdAt,value
2023-01-20T00:01:43.337Z,8.68
2023-01-20T00:04:10.100Z,7.43
2023-01-20T00:06:36.897Z,8.30
2023-01-20T00:09:05.420Z,9.13
2023-01-20T00:11:33.432Z,8.93
2023-01-20T00:14:02.361Z,9.52
2023-01-20T00:16:31.968Z,9.90
2023-01-20T00:18:59.235Z,9.23
2023-01-20T00:21:26.009Z,9.10
2023-01-20T00:23:52.776Z,9.43
2023-01-20T00:26:23.169Z,8.68
2023-01-20T00:28:52.996Z,8.70
2023-01-20T00:31:23.221Z,9.05
2023-01-20T00:33:52.293Z,8.95
2023-01-20T00:36:21.218Z,9.02
2023-01-20T00:38:48.926Z,7.80
2023-01-20T00:41:16.673Z,7.88
2023-01-20T00:43:44.403Z,8.73
2023-01-20T00:46:12.297Z,7.85
2023-01-20T00:48:39.562Z,8.10
2023-01-20T00:51:08.201Z,8.95
2023-01-20T00:53:35.748Z,9.18
2023-01-20T00:56:02.969Z,8.95
2023-01-20T00:58:29.747Z,7.90
2023-01-20T01:00:58.631Z,8.70
2023-01-20T01:03:28.255Z,8.55
2023-01-20T01:06:05.728Z,9.35
2023-01-20T01:08:34.943Z,8.63
2023-01-20T01:11:01.938Z,8.10
2023-01-20T01:13:29.248Z,8.68
2023-01-20T01:15:55.976Z,9.30
2023-01-20T01:18:22.988Z,8.15
2023-01-20T01:20:49.869Z,8.30
2023-01-20T01:23:16.649Z,8.23
2023-01-20T01:25:43.410Z,8.52
2023-01-20T01:28:10.199Z,8.85
2023-01-20T01:30:37.150Z,8.80
2023-01-20T01:33:04.152Z,8.77
2023-01-20T01:35:30.941Z,9.55
2023-01-20T01:37:57.702Z,8.43
2023-01-20T01:40:24.464Z,8.43
2023-01-20T01:42:51.238Z,7.95
2023-01-20T01:45:23.790Z,8.25
2023-01-20T01:48:09.777Z,8.63
2023-01-20T01:50:56.236Z,7.57
2023-01-20T01:53:23.551Z,7.85
2023-01-20T01:55:56.539Z,7.40
2023-01-20T01:58:32.280Z,7.70
2023-01-20T02:00:59.437Z,8.10
2023-01-20T02:03:40.432Z,7.70
2023-01-20T02:06:08.042Z,6.93
2023-01-20T02:08:35.719Z,8.15
2023-01-20T02:11:02.454Z,7.32
2023-01-20T02:13:29.447Z,7.97
2023-01-20T02:16:25.345Z,8.35
2023-01-20T02:19:30.799Z,8.10
2023-01-20T02:22:14.439Z,6.50
2023-01-20T02:25:17.384Z,6.70
2023-01-20T02:28:21.057Z,6.38
2023-01-20T02:31:29.342Z,7.18
2023-01-20T02:34:35.053Z,7.00
2023-01-20T02:37:24.468Z,6.55
2023-01-20T02:40:10.069Z,7.03
2023-01-20T02:42:57.121Z,7.13
2023-01-20T02:45:42.960Z,7.40
2023-01-20T02:48:36.144Z,7.70
2023-01-20T02:51:12.601Z,8.68
2023-01-20T02:53:48.838Z,8.27
2023-01-20T02:56:17.727Z,8.30
2023-01-20T02:59:08.273Z,8.55
2023-01-20T03:01:47.557Z,7.82
2023-01-20T03:04:24.246Z,7.68
2023-01-20T03:06:56.823Z,6.90
2023-01-20T03:09:31.264Z,8.02
2023-01-20T03:12:07.948Z,7.80
2023-01-20T03:14:34.917Z,7.88
2023-01-20T03:17:02.761Z,7.40
2023-01-20T03:19:29.959Z,7.45
2023-01-20T03:21:57.651Z,8.32
2023-01-20T03:24:28.895Z,8.38
2023-01-20T03:26:56.191Z,8.20
2023-01-20T03:29:23.011Z,7.80
2023-01-20T03:31:56.805Z,8.60
2023-01-20T03:34:28.059Z,8.38
2023-01-20T03:36:56.479Z,8.40
2023-01-20T03:39:25.047Z,8.60
2023-01-20T03:42:15.747Z,7.43
2023-01-20T03:45:05.045Z,8.40
2023-01-20T03:48:07.461Z,7.85
2023-01-20T03:51:28.436Z,8.35
2023-01-20T03:54:11.112Z,8.65
2023-01-20T03:57:04.096Z,8.27
2023-01-20T03:59:36.908Z,7.65
2023-01-20T04:02:07.847Z,8.85
2023-01-20T04:04:39.610Z,8.60
2023-01-20T04:07:13.708Z,9.25
2023-01-20T04:09:45.948Z,9.15
2023-01-20T04:12:13.423Z,8.98
2023-01-20T04:14:40.343Z,9.52
2023-01-20T04:17:07.916Z,9.30
2023-01-20T04:19:34.854Z,9.55
2023-01-20T04:22:28.196Z,9.75
2023-01-20T04:25:06.711Z,10.02
2023-01-20T04:27:33.512Z,10.52
2023-01-20T04:30:00.241Z,9.65
2023-01-20T04:32:27.028Z,10.48
2023-01-20T04:34:53.977Z,10.45
2023-01-20T04:37:20.685Z,10.48
2023-01-20T04:39:47.396Z,10.02
2023-01-20T04:42:14.148Z,10.57
2023-01-20T04:44:40.918Z,11.25
2023-01-20T04:47:07.775Z,10.88
2023-01-20T04:49:35.506Z,11.90
2023-01-20T04:52:02.356Z,11.32
2023-01-20T04:54:29.089Z,11.65
2023-01-20T04:56:55.832Z,11.38
2023-01-20T04:59:22.705Z,11.65
2023-01-20T05:01:49.599Z,12.27
2023-01-20T05:04:16.393Z,12.55
2023-01-20T05:06:44.868Z,11.85
2023-01-20T05:09:16.682Z,12.60
2023-01-20T05:11:44.404Z,12.70
2023-01-20T05:14:12.514Z,13.45
2023-01-20T05:16:39.273Z,13.02
2023-01-20T05:19:06.057Z,13.32
2023-01-20T05:21:33.783Z,13.10
2023-01-20T05:24:00.673Z,14.00
2023-01-20T05:26:27.511Z,13.90
2023-01-20T05:28:54.463Z,13.73
2023-01-20T05:31:21.456Z,13.45
2023-01-20T05:33:48.233Z,13.18
2023-01-20T05:36:14.952Z,14.15
2023-01-20T05:38:41.822Z,14.18
2023-01-20T05:41:09.898Z,14.00
2023-01-20T05:43:37.243Z,14.10
2023-01-20T05:46:06.523Z,13.95
2023-01-20T05:48:33.518Z,14.65
2023-01-20T05:51:00.336Z,14.15
2023-01-20T05:53:27.123Z,14.45
2023-01-20T05:56:02.230Z,15.07
2023-01-20T05:58:30.127Z,15.38
2023-01-20T06:01:09.487Z,14.80
2023-01-20T06:03:37.143Z,14.65
2023-01-20T06:06:07.950Z,15.23
2023-01-20T06:08:35.856Z,15.38
2023-01-20T06:11:02.793Z,15.18
2023-01-20T06:13:29.680Z,15.02
2023-01-20T06:15:56.804Z,15.57
2023-01-20T06:18:24.877Z,15.75
2023-01-20T06:20:51.776Z,15.45
2023-01-20T06:23:18.673Z,15.82
2023-01-20T06:25:45.503Z,16.85
2023-01-20T06:28:12.352Z,16.05
2023-01-20T06:30:39.181Z,16.33
2023-01-20T06:33:10.554Z,15.02
2023-01-20T06:35:37.892Z,16.45
2023-01-20T06:38:04.746Z,16.90
2023-01-20T06:40:31.829Z,16.00
2023-01-20T06:42:59.366Z,16.15
2023-01-20T06:45:26.172Z,15.50
2023-01-20T06:47:52.978Z,15.48
2023-01-20T06:50:19.847Z,15.75
2023-01-20T06:52:46.589Z,16.67
2023-01-20T06:55:13.555Z,14.98
2023-01-20T06:57:40.484Z,14.93
2023-01-20T07:00:09.680Z,15.32
2023-01-20T07:02:36.491Z,14.82
2023-01-20T07:05:04.658Z,15.05
2023-01-20T07:07:31.380Z,14.48
2023-01-20T07:09:58.140Z,15.93
2023-01-20T07:12:24.881Z,14.55
2023-01-20T07:14:51.628Z,16.05
2023-01-20T07:17:18.399Z,15.07
2023-01-20T07:19:45.382Z,16.20
2023-01-20T07:22:12.117Z,16.35
2023-01-20T07:24:38.971Z,15.65
2023-01-20T07:27:05.761Z,16.45
2023-01-20T07:29:32.518Z,15.80
2023-01-20T07:31:59.383Z,14.90
2023-01-20T07:34:26.207Z,15.25
2023-01-20T07:36:55.814Z,15.50
2023-01-20T07:39:22.565Z,17.23
2023-01-20T07:41:49.707Z,15.88
2023-01-20T07:44:16.782Z,15.05
2023-01-20T07:46:43.599Z,16.45
2023-01-20T07:49:12.395Z,15.20
2023-01-20T07:51:39.854Z,14.40
2023-01-20T07:54:06.757Z,13.90
2023-01-20T07:56:33.638Z,13.82
2023-01-20T07:59:00.857Z,14.50
2023-01-20T08:01:30.884Z,15.07
2023-01-20T08:04:02.444Z,15.02
2023-01-20T08:06:30.341Z,14.43
2023-01-20T08:09:01.961Z,14.88
2023-01-20T08:11:29.465Z,14.68
2023-01-20T08:13:56.437Z,15.77
2023-01-20T08:16:23.584Z,15.43
2023-01-20T08:18:53.855Z,16.17
2023-01-20T08:21:28.892Z,15.55
2023-01-20T08:23:57.651Z,15.30
2023-01-20T08:26:25.450Z,15.60
2023-01-20T08:28:52.272Z,16.15
2023-01-20T08:31:22.342Z,15.65
2023-01-20T08:33:54.502Z,15.93
2023-01-20T08:36:29.765Z,15.40
2023-01-20T08:38:59.869Z,16.10
2023-01-20T08:41:34.574Z,16.08
2023-01-20T08:44:04.575Z,15.70
2023-01-20T08:46:32.780Z,17.70
2023-01-20T08:48:59.606Z,16.15
2023-01-20T08:51:31.020Z,17.05
2023-01-20T08:53:58.319Z,15.65
2023-01-20T08:56:25.147Z,16.63
2023-01-20T08:58:52.245Z,16.88
2023-01-20T09:01:26.512Z,15.55
2023-01-20T09:04:05.512Z,15.40
2023-01-20T09:06:46.359Z,16.17
2023-01-20T09:09:16.789Z,16.83
2023-01-20T09:11:50.949Z,18.02
2023-01-20T09:14:24.692Z,16.92
2023-01-20T09:16:51.729Z,16.65
2023-01-20T09:19:18.746Z,17.83
2023-01-20T09:21:45.508Z,19.13
2023-01-20T09:24:12.484Z,18.20
2023-01-20T09:26:41.548Z,17.98
2023-01-20T09:29:12.843Z,18.55
2023-01-20T09:31:44.921Z,18.55
2023-01-20T09:34:21.397Z,18.05
2023-01-20T09:37:19.974Z,18.98
2023-01-20T09:40:06.196Z,19.08
2023-01-20T09:43:25.368Z,16.63
2023-01-20T09:46:21.891Z,14.23
2023-01-20T09:49:26.363Z,15.43
2023-01-20T09:52:45.953Z,15.38
2023-01-20T09:55:28.760Z,15.98
2023-01-20T09:58:25.663Z,19.15
2023-01-20T10:01:13.874Z,16.42
2023-01-20T10:03:58.689Z,15.45
2023-01-20T10:06:51.591Z,16.70
2023-01-20T10:09:52.787Z,17.88
2023-01-20T10:12:33.838Z,17.33
2023-01-20T10:15:12.604Z,17.75
2023-01-20T10:18:02.266Z,17.95
2023-01-20T10:21:00.857Z,18.10
2023-01-20T10:23:46.456Z,18.52
2023-01-20T10:26:40.935Z,17.75
2023-01-20T10:29:17.953Z,17.05
2023-01-20T10:32:00.209Z,16.50
2023-01-20T10:34:56.314Z,17.13
2023-01-20T10:37:24.553Z,16.75
2023-01-20T10:40:14.030Z,18.23
2023-01-20T10:42:41.400Z,17.77
2023-01-20T10:45:23.179Z,18.60
2023-01-20T10:48:25.916Z,16.67
2023-01-20T10:51:37.820Z,17.00
2023-01-20T10:54:41.411Z,17.63
2023-01-20T10:57:14.022Z,16.52
2023-01-20T10:59:51.548Z,16.45
2023-01-20T11:02:34.982Z,17.17
2023-01-20T11:05:18.890Z,17.58
2023-01-20T11:07:47.515Z,17.60
2023-01-20T11:10:25.025Z,18.33
2023-01-20T11:12:57.470Z,17.75
2023-01-20T11:15:36.713Z,17.25
2023-01-20T11:18:15.765Z,16.25
2023-01-20T11:20:58.102Z,16.67
2023-01-20T11:23:52.229Z,16.98
2023-01-20T11:26:31.645Z,17.13
2023-01-20T11:29:28.626Z,17.75
2023-01-20T11:31:56.752Z,16.55
2023-01-20T11:34:26.535Z,16.75
2023-01-20T11:37:19.539Z,18.17
2023-01-20T11:39:49.314Z,18.85
2023-01-20T11:42:27.485Z,18.15
2023-01-20T11:45:19.831Z,17.65
2023-01-20T11:48:04.887Z,17.60
2023-01-20T11:53:34.773Z,16.77
2023-01-20T11:56:15.158Z,19.00
2023-01-20T11:59:01.841Z,20.23
2023-01-20T12:01:49.956Z,19.27
2023-01-20T12:04:54.456Z,19.55
2023-01-20T12:07:29.314Z,19.10
2023-01-20T12:10:17.092Z,19.80
2023-01-20T12:13:24.997Z,20.48
2023-01-20T12:15:59.076Z,19.65
2023-01-20T12:18:45.440Z,18.73
2023-01-20T12:21:26.358Z,19.52
2023-01-20T12:24:09.659Z,18.10
2023-01-20T12:26:36.694Z,17.73
2023-01-20T12:29:28.756Z,18.55
2023-01-20T12:31:55.633Z,18.38
2023-01-20T12:34:29.801Z,19.80
2023-01-20T12:37:24.761Z,17.65
2023-01-20T12:40:13.439Z,17.95
2023-01-20T12:43:12.868Z,17.30
2023-01-20T12:46:03.300Z,18.02
2023-01-20T12:48:54.327Z,17.70
2023-01-20T12:51:54.314Z,17.20
2023-01-20T12:55:17.453Z,16.08
2023-01-20T12:58:17.253Z,17.67
2023-01-20T13:01:29.083Z,17.65
2023-01-20T13:04:48.795Z,17.08
2023-01-20T13:07:33.021Z,17.15
2023-01-20T13:10:47.059Z,18.40
2023-01-20T13:14:02.019Z,18.33
2023-01-20T13:16:42.601Z,18.95
2023-01-20T13:19:37.162Z,18.83
2023-01-20T13:22:19.641Z,19.08
2023-01-20T13:24:50.750Z,17.13
2023-01-20T13:27:29.075Z,18.15
2023-01-20T13:29:58.949Z,18.38
2023-01-20T13:32:48.152Z,18.42
2023-01-20T13:35:17.933Z,19.08
2023-01-20T13:37:57.588Z,19.60
2023-01-20T13:40:36.544Z,18.98
2023-01-20T13:43:26.351Z,19.67
2023-01-20T13:46:06.597Z,18.77
2023-01-20T13:48:43.849Z,19.17
2023-01-20T13:51:42.405Z,19.90
2023-01-20T13:54:25.145Z,18.63
2023-01-20T13:56:52.387Z,19.90
2023-01-20T13:59:19.178Z,20.83
2023-01-20T14:01:45.974Z,20.20
2023-01-20T14:04:19.610Z,21.88
2023-01-20T14:06:49.637Z,19.90
2023-01-20T14:09:34.678Z,19.67
2023-01-20T14:12:01.449Z,19.30
2023-01-20T14:14:28.176Z,20.25
2023-01-20T14:16:56.467Z,20.65
2023-01-20T14:19:33.917Z,18.90
2023-01-20T14:22:16.443Z,19.17
2023-01-20T14:24:49.265Z,19.33
2023-01-20T14:27:35.492Z,20.40
2023-01-20T14:30:26.045Z,20.33
2023-01-20T14:32:53.808Z,19.80
2023-01-20T14:35:34.353Z,18.80
2023-01-20T14:38:02.139Z,19.75
2023-01-20T14:40:32.999Z,20.17
2023-01-20T14:43:16.557Z,19.85
2023-01-20T14:45:47.204Z,19.85
2023-01-20T14:48:28.238Z,19.65
2023-01-20T14:51:02.784Z,18.67
2023-01-20T14:53:29.628Z,21.20
2023-01-20T14:56:03.091Z,21.60
2023-01-20T14:58:31.054Z,21.45
2023-01-20T15:01:06.700Z,21.40
2023-01-20T15:03:33.630Z,20.92
2023-01-20T15:06:17.564Z,21.50
2023-01-20T15:09:04.325Z,21.85
2023-01-20T15:11:32.979Z,20.45
2023-01-20T15:14:02.414Z,21.65
2023-01-20T15:16:47.273Z,20.33
2023-01-20T15:19:16.929Z,19.02
2023-01-20T15:21:58.809Z,18.65
2023-01-20T15:24:32.849Z,19.67
2023-01-20T15:29:34.580Z,19.00
2023-01-20T15:32:12.870Z,20.42
2023-01-20T15:34:39.661Z,21.42
2023-01-20T15:37:19.952Z,20.45
2023-01-20T15:39:47.557Z,21.17
2023-01-20T15:42:15.327Z,20.55
2023-01-20T15:44:42.117Z,19.77
2023-01-20T15:47:29.134Z,21.13
2023-01-20T15:49:55.956Z,21.42
2023-01-20T15:52:22.735Z,21.10
2023-01-20T15:54:49.453Z,21.20
2023-01-20T15:57:18.025Z,21.70
2023-01-20T15:59:46.077Z,22.42
2023-01-20T16:02:23.007Z,21.63
2023-01-20T16:04:50.481Z,21.48
2023-01-20T16:07:19.677Z,21.02
2023-01-20T16:09:46.922Z,20.38
2023-01-20T16:12:16.223Z,21.50
2023-01-20T16:14:43.338Z,21.10
2023-01-20T16:17:21.517Z,20.52
2023-01-20T16:19:50.044Z,20.52
2023-01-20T16:22:17.263Z,19.63
2023-01-20T16:24:44.221Z,20.70
2023-01-20T16:27:21.607Z,21.63
2023-01-20T16:29:49.198Z,22.83
2023-01-20T16:32:18.671Z,22.40
2023-01-20T16:34:46.686Z,21.52
2023-01-20T16:37:14.696Z,20.85
2023-01-20T16:39:41.567Z,21.52
2023-01-20T16:42:12.422Z,20.95
2023-01-20T16:44:39.197Z,20.05
2023-01-20T16:47:08.250Z,20.17
2023-01-20T16:49:35.088Z,19.65
2023-01-20T16:52:01.844Z,20.67
2023-01-20T16:54:28.551Z,21.40
2023-01-20T16:56:55.322Z,22.65
2023-01-20T16:59:22.581Z,21.95
2023-01-20T17:01:49.455Z,20.55
2023-01-20T17:04:16.679Z,21.52
2023-01-20T17:06:43.502Z,21.75
2023-01-20T17:09:11.283Z,22.40
2023-01-20T17:11:40.401Z,20.83
2023-01-20T17:14:10.479Z,20.55
2023-01-20T17:16:38.730Z,20.52
2023-01-20T17:19:06.173Z,21.60
2023-01-20T17:21:38.403Z,20.88
2023-01-20T17:24:06.066Z,21.55
2023-01-20T17:26:34.461Z,20.48
2023-01-20T17:29:05.249Z,21.02
2023-01-20T17:31:35.566Z,19.83
2023-01-20T17:34:06.817Z,20.27
2023-01-20T17:36:38.645Z,20.35
2023-01-20T17:39:07.109Z,21.92
2023-01-20T17:41:34.661Z,20.52
2023-01-20T17:44:01.385Z,19.77
2023-01-20T17:46:30.195Z,19.67
2023-01-20T17:49:01.709Z,19.10
2023-01-20T17:51:30.203Z,19.15
2023-01-20T17:54:03.528Z,19.73
2023-01-20T17:56:30.771Z,19.70
2023-01-20T17:58:57.538Z,20.40
2023-01-20T18:01:28.774Z,19.63
2023-01-20T18:03:59.307Z,19.63
2023-01-20T18:06:28.119Z,19.42
2023-01-20T18:08:58.715Z,20.38
2023-01-20T18:11:28.903Z,19.13
2023-01-20T18:13:58.263Z,19.55
2023-01-20T18:16:30.110Z,18.60
2023-01-20T18:18:58.967Z,19.20
2023-01-20T18:21:29.892Z,20.70
2023-01-20T18:23:58.120Z,20.48
2023-01-20T18:26:29.382Z,20.67
2023-01-20T18:28:59.867Z,20.65
2023-01-20T18:31:28.961Z,20.20
2023-01-20T18:33:59.217Z,20.27
2023-01-20T18:36:30.442Z,19.08
2023-01-20T18:39:08.105Z,19.60
2023-01-20T18:41:37.632Z,19.52
2023-01-20T18:44:05.518Z,20.35
2023-01-20T18:46:32.921Z,20.52
2023-01-20T18:49:00.116Z,19.55
2023-01-20T18:51:30.020Z,18.45
2023-01-20T18:54:07.344Z,19.55
2023-01-20T18:56:35.293Z,19.02
2023-01-20T18:59:04.158Z,19.85
2023-01-20T19:01:35.715Z,19.60
2023-01-20T19:04:04.466Z,18.83
2023-01-20T19:06:36.030Z,18.40
2023-01-20T19:09:04.886Z,16.85
2023-01-20T19:11:36.284Z,17.75
2023-01-20T19:14:03.683Z,17.85
2023-01-20T19:16:40.233Z,18.65
2023-01-20T19:19:07.787Z,17.50
2023-01-20T19:21:36.165Z,18.20
2023-01-20T19:24:06.113Z,16.70
2023-01-20T19:26:36.654Z,16.88
2023-01-20T19:29:11.793Z,16.05
2023-01-20T19:31:41.405Z,16.42
2023-01-20T19:34:09.767Z,16.95
2023-01-20T19:36:37.378Z,17.40
2023-01-20T19:39:05.467Z,16.50
2023-01-20T19:41:34.262Z,16.50
2023-01-20T19:44:03.253Z,16.95
2023-01-20T19:46:33.864Z,16.50
2023-01-20T19:49:02.207Z,17.70
2023-01-20T19:51:31.141Z,17.48
2023-01-20T19:54:00.879Z,17.52
2023-01-20T19:56:31.306Z,18.52
2023-01-20T19:59:00.706Z,16.35
2023-01-20T20:01:31.987Z,16.83
2023-01-20T20:04:03.495Z,16.13
2023-01-20T20:06:40.536Z,15.25
2023-01-20T20:09:12.358Z,15.02
2023-01-20T20:11:39.932Z,14.90
2023-01-20T20:14:10.950Z,16.73
2023-01-20T20:16:38.601Z,17.25
2023-01-20T20:19:07.392Z,16.05
2023-01-20T20:21:35.008Z,16.15
2023-01-20T20:24:05.175Z,17.38
2023-01-20T20:26:36.605Z,17.15
2023-01-20T20:29:07.040Z,17.30
2023-01-20T20:31:36.811Z,17.50
2023-01-20T20:34:06.824Z,16.90
2023-01-20T20:36:33.906Z,14.63
2023-01-20T20:39:03.328Z,13.73
2023-01-20T20:41:31.683Z,13.18
2023-01-20T20:44:01.163Z,15.15
2023-01-20T20:46:29.948Z,13.82
2023-01-20T20:49:02.147Z,14.50
2023-01-20T20:51:32.175Z,14.23
2023-01-20T20:54:01.858Z,13.43
2023-01-20T20:56:33.673Z,14.23
2023-01-20T20:59:03.208Z,13.80
2023-01-20T21:01:33.541Z,13.95
2023-01-20T21:04:01.475Z,13.13
2023-01-20T21:06:29.462Z,12.80
2023-01-20T21:08:56.452Z,14.25
2023-01-20T21:11:24.943Z,13.70
2023-01-20T21:13:52.875Z,13.23
2023-01-20T21:16:23.000Z,13.05
2023-01-20T21:18:52.243Z,13.32
2023-01-20T21:21:20.141Z,13.20
2023-01-20T21:23:55.776Z,11.65
2023-01-20T21:26:26.222Z,11.63
2023-01-20T21:28:54.069Z,11.43
2023-01-20T21:31:24.579Z,11.15
2023-01-20T21:33:54.509Z,11.02
2023-01-20T21:36:22.269Z,11.43
2023-01-20T21:38:50.234Z,10.82
2023-01-20T21:41:17.975Z,10.65
2023-01-20T21:44:06.014Z,10.60
2023-01-20T21:46:38.959Z,10.50
2023-01-20T21:49:28.142Z,10.13
2023-01-20T21:52:14.574Z,9.68
2023-01-20T21:54:41.950Z,9.77
2023-01-20T21:57:09.215Z,9.13
2023-01-20T21:59:36.415Z,8.52
2023-01-20T22:02:03.311Z,9.30
2023-01-20T22:04:30.199Z,8.90
2023-01-20T22:06:56.954Z,9.35
2023-01-20T22:09:23.880Z,8.93
2023-01-20T22:11:50.722Z,9.05
2023-01-20T22:14:17.751Z,8.43
2023-01-20T22:16:44.748Z,8.82
2023-01-20T22:19:14.930Z,8.57
2023-01-20T22:21:42.647Z,8.55
2023-01-20T22:24:11.437Z,8.90
2023-01-20T22:26:38.417Z,10.38
2023-01-20T22:29:05.335Z,8.07
2023-01-20T22:31:34.160Z,8.52
2023-01-20T22:34:06.148Z,8.18
2023-01-20T22:36:34.121Z,8.60
2023-01-20T22:39:01.042Z,8.02
2023-01-20T22:41:27.984Z,8.68
2023-01-20T22:43:55.767Z,8.35
2023-01-20T22:46:25.272Z,8.88
2023-01-20T22:48:52.245Z,8.70
2023-01-20T22:51:22.882Z,8.75
2023-01-20T22:53:54.646Z,9.82
2023-01-20T22:56:30.503Z,9.95
2023-01-20T22:58:59.553Z,9.23
2023-01-20T23:01:33.170Z,9.52
2023-01-20T23:04:05.628Z,9.48
2023-01-20T23:06:35.412Z,10.93
2023-01-20T23:09:07.248Z,9.88
2023-01-20T23:11:36.541Z,9.90
2023-01-20T23:14:03.716Z,9.95
2023-01-20T23:16:30.459Z,10.85
2023-01-20T23:18:57.307Z,11.73
2023-01-20T23:21:24.485Z,10.88
2023-01-20T23:23:54.470Z,10.88
2023-01-20T23:26:25.784Z,10.25
2023-01-20T23:28:53.913Z,11.15
2023-01-20T23:31:23.016Z,10.27
2023-01-20T23:33:50.466Z,10.73
2023-01-20T23:36:21.536Z,9.85
2023-01-20T23:38:48.288Z,9.65
2023-01-20T23:41:15.842Z,10.38
2023-01-20T23:43:43.151Z,9.73
2023-01-20T23:46:10.937Z,10.02
2023-01-20T23:48:39.180Z,10.52
2023-01-20T23:51:06.860Z,9.95
2023-01-20T23:53:40.349Z,10.10
2023-01-20T23:56:15.847Z,10.27
2023-01-20T23:58:42.859Z,9.63
